sensor_id;sensor_type;location;lat;lon;timestamp;temperature;humidity
22635;DHT22;11484;50.858;4.384;2024-02-15T00:01:54;14.30;99.90
22635;DHT22;11484;50.858;4.384;2024-02-15T00:04:20;14.30;99.90
22635;DHT22;11484;50.858;4.384;2024-02-15T00:06:46;14.20;99.90
22635;DHT22;11484;50.858;4.384;2024-02-15T00:09:13;14.20;99.90
22635;DHT22;11484;50.858;4.384;2024-02-15T00:11:38;14.20;99.90
22635;DHT22;11484;50.858;4.384;2024-02-15T00:14:04;14.20;99.90
22635;DHT22;11484;50.858;4.384;2024-02-15T00:16:30;14.20;99.90
22635;DHT22;11484;50.858;4.384;2024-02-15T00:18:56;14.30;99.90
22635;DHT22;11484;50.858;4.384;2024-02-15T00:21:25;14.30;99.90
22635;DHT22;11484;50.858;4.384;2024-02-15T00:23:50;14.20;99.90
22635;DHT22;11484;50.858;4.384;2024-02-15T00:26:16;14.20;99.90
22635;DHT22;11484;50.858;4.384;2024-02-15T00:28:44;14.20;99.90
22635;DHT22;11484;50.858;4.384;2024-02-15T00:31:09;14.20;99.90
22635;DHT22;11484;50.858;4.384;2024-02-15T00:33:35;14.20;99.90
22635;DHT22;11484;50.858;4.384;2024-02-15T00:36:03;14.20;99.90
22635;DHT22;11484;50.858;4.384;2024-02-15T00:38:31;14.30;99.90
22635;DHT22;11484;50.858;4.384;2024-02-15T00:40:56;14.30;99.90
22635;DHT22;11484;50.858;4.384;2024-02-15T00:43:22;14.20;99.90
22635;DHT22;11484;50.858;4.384;2024-02-15T00:45:48;14.20;99.90
22635;DHT22;11484;50.858;4.384;2024-02-15T00:48:13;14.20;99.90
22635;DHT22;11484;50.858;4.384;2024-02-15T00:50:42;14.20;99.90
22635;DHT22;11484;50.858;4.384;2024-02-15T00:53:07;14.30;99.90
22635;DHT22;11484;50.858;4.384;2024-02-15T00:55:33;14.20;99.90
22635;DHT22;11484;50.858;4.384;2024-02-15T00:57:59;14.20;99.90
22635;DHT22;11484;50.858;4.384;2024-02-15T01:00:24;14.20;99.90
22635;DHT22;11484;50.858;4.384;2024-02-15T01:02:51;14.10;99.90
22635;DHT22;11484;50.858;4.384;2024-02-15T01:05:18;14.10;99.90
22635;DHT22;11484;50.858;4.384;2024-02-15T01:07:44;14.10;99.90
22635;DHT22;11484;50.858;4.384;2024-02-15T01:10:10;14.10;99.90
22635;DHT22;11484;50.858;4.384;2024-02-15T01:12:35;14.20;99.90
22635;DHT22;11484;50.858;4.384;2024-02-15T01:15:02;14.20;99.90
22635;DHT22;11484;50.858;4.384;2024-02-15T01:17:29;14.20;99.90
22635;DHT22;11484;50.858;4.384;2024-02-15T01:19:55;14.20;99.90
22635;DHT22;11484;50.858;4.384;2024-02-15T01:22:21;14.10;99.90
22635;DHT22;11484;50.858;4.384;2024-02-15T01:24:50;14.20;99.90
22635;DHT22;11484;50.858;4.384;2024-02-15T01:27:16;14.20;99.90
22635;DHT22;11484;50.858;4.384;2024-02-15T01:29:42;14.30;99.90
22635;DHT22;11484;50.858;4.384;2024-02-15T01:32:08;14.30;99.90
22635;DHT22;11484;50.858;4.384;2024-02-15T01:34:33;14.40;99.90
22635;DHT22;11484;50.858;4.384;2024-02-15T01:36:59;14.40;99.90
22635;DHT22;11484;50.858;4.384;2024-02-15T01:39:25;14.40;99.90
22635;DHT22;11484;50.858;4.384;2024-02-15T01:41:51;14.40;99.90
22635;DHT22;11484;50.858;4.384;2024-02-15T01:44:21;14.30;99.90
22635;DHT22;11484;50.858;4.384;2024-02-15T01:46:47;14.30;99.90
22635;DHT22;11484;50.858;4.384;2024-02-15T01:49:14;14.30;99.90
22635;DHT22;11484;50.858;4.384;2024-02-15T01:51:41;14.40;99.90
22635;DHT22;11484;50.858;4.384;2024-02-15T01:54:10;14.30;99.90
22635;DHT22;11484;50.858;4.384;2024-02-15T01:56:36;14.20;99.90
22635;DHT22;11484;50.858;4.384;2024-02-15T01:59:02;14.10;99.90
22635;DHT22;11484;50.858;4.384;2024-02-15T02:01:30;14.10;99.90
22635;DHT22;11484;50.858;4.384;2024-02-15T02:03:58;14.20;99.90
22635;DHT22;11484;50.858;4.384;2024-02-15T02:06:25;14.20;99.90
22635;DHT22;11484;50.858;4.384;2024-02-15T02:08:52;14.20;99.90
22635;DHT22;11484;50.858;4.384;2024-02-15T02:11:18;14.20;99.90
22635;DHT22;11484;50.858;4.384;2024-02-15T02:13:43;14.30;99.90
22635;DHT22;11484;50.858;4.384;2024-02-15T02:16:25;14.20;99.90
22635;DHT22;11484;50.858;4.384;2024-02-15T02:18:53;14.20;99.90
22635;DHT22;11484;50.858;4.384;2024-02-15T02:21:19;14.20;99.90
22635;DHT22;11484;50.858;4.384;2024-02-15T02:23:48;14.10;99.90
22635;DHT22;11484;50.858;4.384;2024-02-15T02:26:18;14.10;99.90
22635;DHT22;11484;50.858;4.384;2024-02-15T02:28:47;14.10;99.90
22635;DHT22;11484;50.858;4.384;2024-02-15T02:31:13;14.10;99.90
22635;DHT22;11484;50.858;4.384;2024-02-15T02:33:42;14.10;99.90
22635;DHT22;11484;50.858;4.384;2024-02-15T02:36:12;14.10;99.90
22635;DHT22;11484;50.858;4.384;2024-02-15T02:38:38;14.10;99.90
22635;DHT22;11484;50.858;4.384;2024-02-15T02:41:05;14.20;99.90
22635;DHT22;11484;50.858;4.384;2024-02-15T02:43:31;14.20;99.90
22635;DHT22;11484;50.858;4.384;2024-02-15T02:45:56;14.20;99.90
22635;DHT22;11484;50.858;4.384;2024-02-15T02:48:22;14.20;99.90
22635;DHT22;11484;50.858;4.384;2024-02-15T02:50:49;14.10;99.90
22635;DHT22;11484;50.858;4.384;2024-02-15T02:53:16;14.20;99.90
22635;DHT22;11484;50.858;4.384;2024-02-15T02:55:42;14.20;99.90
22635;DHT22;11484;50.858;4.384;2024-02-15T02:58:08;14.20;99.90
22635;DHT22;11484;50.858;4.384;2024-02-15T03:00:34;14.20;99.90
22635;DHT22;11484;50.858;4.384;2024-02-15T03:02:59;14.20;99.90
22635;DHT22;11484;50.858;4.384;2024-02-15T03:05:26;14.20;99.90
22635;DHT22;11484;50.858;4.384;2024-02-15T03:07:52;14.20;99.90
22635;DHT22;11484;50.858;4.384;2024-02-15T03:10:18;14.20;99.90
22635;DHT22;11484;50.858;4.384;2024-02-15T03:12:44;14.00;99.90
22635;DHT22;11484;50.858;4.384;2024-02-15T03:15:13;13.90;99.90
22635;DHT22;11484;50.858;4.384;2024-02-15T03:17:40;13.90;99.90
22635;DHT22;11484;50.858;4.384;2024-02-15T03:20:10;13.90;99.90
22635;DHT22;11484;50.858;4.384;2024-02-15T03:22:56;13.80;99.90
22635;DHT22;11484;50.858;4.384;2024-02-15T03:25:27;13.80;99.90
22635;DHT22;11484;50.858;4.384;2024-02-15T03:27:58;13.80;99.90
22635;DHT22;11484;50.858;4.384;2024-02-15T03:30:27;13.70;99.90
22635;DHT22;11484;50.858;4.384;2024-02-15T03:32:56;13.90;99.90
22635;DHT22;11484;50.858;4.384;2024-02-15T03:35:25;14.00;99.90
22635;DHT22;11484;50.858;4.384;2024-02-15T03:37:52;14.00;99.90
22635;DHT22;11484;50.858;4.384;2024-02-15T03:40:19;14.00;99.90
22635;DHT22;11484;50.858;4.384;2024-02-15T03:42:45;14.00;99.90
22635;DHT22;11484;50.858;4.384;2024-02-15T03:45:11;14.10;99.90
22635;DHT22;11484;50.858;4.384;2024-02-15T03:47:37;14.10;99.90
22635;DHT22;11484;50.858;4.384;2024-02-15T03:50:03;14.10;99.90
22635;DHT22;11484;50.858;4.384;2024-02-15T03:52:30;14.00;99.90
22635;DHT22;11484;50.858;4.384;2024-02-15T03:54:57;14.00;99.90
22635;DHT22;11484;50.858;4.384;2024-02-15T03:57:26;14.10;99.90
22635;DHT22;11484;50.858;4.384;2024-02-15T03:59:52;14.10;99.90
22635;DHT22;11484;50.858;4.384;2024-02-15T04:02:23;14.00;99.90
22635;DHT22;11484;50.858;4.384;2024-02-15T04:04:53;14.00;99.90
22635;DHT22;11484;50.858;4.384;2024-02-15T04:07:21;13.90;99.90
22635;DHT22;11484;50.858;4.384;2024-02-15T04:09:50;13.70;99.90
22635;DHT22;11484;50.858;4.384;2024-02-15T04:12:15;13.60;99.90
22635;DHT22;11484;50.858;4.384;2024-02-15T04:14:43;13.40;99.90
22635;DHT22;11484;50.858;4.384;2024-02-15T04:17:10;13.40;99.90
22635;DHT22;11484;50.858;4.384;2024-02-15T04:19:36;13.40;99.90
22635;DHT22;11484;50.858;4.384;2024-02-15T04:22:03;13.40;99.90
22635;DHT22;11484;50.858;4.384;2024-02-15T04:24:36;13.40;99.90
22635;DHT22;11484;50.858;4.384;2024-02-15T04:27:09;13.40;99.90
22635;DHT22;11484;50.858;4.384;2024-02-15T04:29:39;13.40;99.90
22635;DHT22;11484;50.858;4.384;2024-02-15T04:32:07;13.30;99.90
22635;DHT22;11484;50.858;4.384;2024-02-15T04:34:37;13.30;99.90
22635;DHT22;11484;50.858;4.384;2024-02-15T04:37:03;13.30;99.90
22635;DHT22;11484;50.858;4.384;2024-02-15T04:39:35;13.30;99.90
22635;DHT22;11484;50.858;4.384;2024-02-15T04:42:01;13.40;99.90
22635;DHT22;11484;50.858;4.384;2024-02-15T04:44:27;13.40;99.90
22635;DHT22;11484;50.858;4.384;2024-02-15T04:46:56;13.40;99.90
22635;DHT22;11484;50.858;4.384;2024-02-15T04:49:21;13.50;99.90
22635;DHT22;11484;50.858;4.384;2024-02-15T04:51:48;13.50;99.90
22635;DHT22;11484;50.858;4.384;2024-02-15T04:54:14;13.50;99.90
22635;DHT22;11484;50.858;4.384;2024-02-15T04:56:40;13.60;99.90
22635;DHT22;11484;50.858;4.384;2024-02-15T04:59:07;13.50;99.90
22635;DHT22;11484;50.858;4.384;2024-02-15T05:01:44;13.60;99.90
22635;DHT22;11484;50.858;4.384;2024-02-15T05:04:10;13.70;99.90
22635;DHT22;11484;50.858;4.384;2024-02-15T05:06:37;13.70;99.90
22635;DHT22;11484;50.858;4.384;2024-02-15T05:09:03;13.80;99.90
22635;DHT22;11484;50.858;4.384;2024-02-15T05:11:33;13.80;99.90
22635;DHT22;11484;50.858;4.384;2024-02-15T05:14:02;13.80;99.90
22635;DHT22;11484;50.858;4.384;2024-02-15T05:16:30;13.80;99.90
22635;DHT22;11484;50.858;4.384;2024-02-15T05:18:57;13.80;99.90
22635;DHT22;11484;50.858;4.384;2024-02-15T05:21:22;13.80;99.90
22635;DHT22;11484;50.858;4.384;2024-02-15T05:23:48;13.70;99.90
22635;DHT22;11484;50.858;4.384;2024-02-15T05:26:14;13.80;99.90
22635;DHT22;11484;50.858;4.384;2024-02-15T05:28:42;13.80;99.90
22635;DHT22;11484;50.858;4.384;2024-02-15T05:31:27;13.80;99.90
22635;DHT22;11484;50.858;4.384;2024-02-15T05:33:53;13.80;99.90
22635;DHT22;11484;50.858;4.384;2024-02-15T05:36:21;13.90;99.90
22635;DHT22;11484;50.858;4.384;2024-02-15T05:38:53;13.90;99.90
22635;DHT22;11484;50.858;4.384;2024-02-15T05:41:20;14.00;99.90
22635;DHT22;11484;50.858;4.384;2024-02-15T05:43:49;14.00;99.90
22635;DHT22;11484;50.858;4.384;2024-02-15T05:46:17;14.00;99.90
22635;DHT22;11484;50.858;4.384;2024-02-15T05:48:43;14.10;99.90
22635;DHT22;11484;50.858;4.384;2024-02-15T05:51:09;14.10;99.90
22635;DHT22;11484;50.858;4.384;2024-02-15T05:53:35;14.20;99.90
22635;DHT22;11484;50.858;4.384;2024-02-15T05:56:08;14.20;99.90
22635;DHT22;11484;50.858;4.384;2024-02-15T05:58:34;14.20;99.90
22635;DHT22;11484;50.858;4.384;2024-02-15T06:01:02;14.20;99.90
22635;DHT22;11484;50.858;4.384;2024-02-15T06:03:31;14.30;99.90
22635;DHT22;11484;50.858;4.384;2024-02-15T06:06:00;14.30;99.90
22635;DHT22;11484;50.858;4.384;2024-02-15T06:08:28;14.30;99.90
22635;DHT22;11484;50.858;4.384;2024-02-15T06:10:57;14.30;99.90
22635;DHT22;11484;50.858;4.384;2024-02-15T06:13:23;14.40;99.90
22635;DHT22;11484;50.858;4.384;2024-02-15T06:15:50;14.40;99.90
22635;DHT22;11484;50.858;4.384;2024-02-15T06:18:29;14.50;99.90
22635;DHT22;11484;50.858;4.384;2024-02-15T06:20:55;14.40;99.90
22635;DHT22;11484;50.858;4.384;2024-02-15T06:23:25;14.40;99.90
22635;DHT22;11484;50.858;4.384;2024-02-15T06:25:53;14.40;99.90
22635;DHT22;11484;50.858;4.384;2024-02-15T06:28:22;14.40;99.90
22635;DHT22;11484;50.858;4.384;2024-02-15T06:31:10;14.40;99.90
22635;DHT22;11484;50.858;4.384;2024-02-15T06:33:55;14.40;99.90
22635;DHT22;11484;50.858;4.384;2024-02-15T06:36:50;14.40;99.90
22635;DHT22;11484;50.858;4.384;2024-02-15T06:39:35;14.30;99.90
22635;DHT22;11484;50.858;4.384;2024-02-15T06:42:04;14.40;99.90
22635;DHT22;11484;50.858;4.384;2024-02-15T06:44:30;14.30;99.90
22635;DHT22;11484;50.858;4.384;2024-02-15T06:46:55;14.20;99.90
22635;DHT22;11484;50.858;4.384;2024-02-15T06:49:23;14.20;99.90
22635;DHT22;11484;50.858;4.384;2024-02-15T06:51:52;14.10;99.90
22635;DHT22;11484;50.858;4.384;2024-02-15T06:54:18;14.10;99.90
22635;DHT22;11484;50.858;4.384;2024-02-15T06:56:44;14.20;99.90
22635;DHT22;11484;50.858;4.384;2024-02-15T06:59:13;14.20;99.90
22635;DHT22;11484;50.858;4.384;2024-02-15T07:01:41;14.30;99.90
22635;DHT22;11484;50.858;4.384;2024-02-15T07:04:08;14.30;99.90
22635;DHT22;11484;50.858;4.384;2024-02-15T07:06:36;14.30;99.90
22635;DHT22;11484;50.858;4.384;2024-02-15T07:09:06;14.40;99.90
22635;DHT22;11484;50.858;4.384;2024-02-15T07:11:35;14.40;99.90
22635;DHT22;11484;50.858;4.384;2024-02-15T07:14:01;14.40;99.90
22635;DHT22;11484;50.858;4.384;2024-02-15T07:16:33;14.40;99.90
22635;DHT22;11484;50.858;4.384;2024-02-15T07:18:59;14.40;99.90
22635;DHT22;11484;50.858;4.384;2024-02-15T07:21:25;14.50;99.90
22635;DHT22;11484;50.858;4.384;2024-02-15T07:23:53;14.50;99.90
22635;DHT22;11484;50.858;4.384;2024-02-15T07:26:20;14.50;99.90
22635;DHT22;11484;50.858;4.384;2024-02-15T07:28:50;14.50;99.90
22635;DHT22;11484;50.858;4.384;2024-02-15T07:31:18;14.40;99.90
22635;DHT22;11484;50.858;4.384;2024-02-15T07:33:43;14.40;99.90
22635;DHT22;11484;50.858;4.384;2024-02-15T07:36:10;14.50;99.90
22635;DHT22;11484;50.858;4.384;2024-02-15T07:38:36;14.50;99.90
22635;DHT22;11484;50.858;4.384;2024-02-15T07:41:02;14.50;99.90
22635;DHT22;11484;50.858;4.384;2024-02-15T07:43:27;14.50;99.90
22635;DHT22;11484;50.858;4.384;2024-02-15T07:45:53;14.60;99.90
22635;DHT22;11484;50.858;4.384;2024-02-15T07:48:19;14.60;99.90
22635;DHT22;11484;50.858;4.384;2024-02-15T07:50:45;14.60;99.90
22635;DHT22;11484;50.858;4.384;2024-02-15T07:53:10;14.60;99.90
22635;DHT22;11484;50.858;4.384;2024-02-15T07:55:39;14.60;99.90
22635;DHT22;11484;50.858;4.384;2024-02-15T07:58:04;14.70;99.90
22635;DHT22;11484;50.858;4.384;2024-02-15T08:00:30;14.80;99.90
22635;DHT22;11484;50.858;4.384;2024-02-15T08:02:56;14.90;99.90
22635;DHT22;11484;50.858;4.384;2024-02-15T08:05:24;15.10;99.90
22635;DHT22;11484;50.858;4.384;2024-02-15T08:07:50;15.10;99.90
22635;DHT22;11484;50.858;4.384;2024-02-15T08:10:16;15.10;99.90
22635;DHT22;11484;50.858;4.384;2024-02-15T08:12:46;15.10;99.90
22635;DHT22;11484;50.858;4.384;2024-02-15T08:15:15;15.00;99.90
22635;DHT22;11484;50.858;4.384;2024-02-15T08:17:45;15.00;99.90
22635;DHT22;11484;50.858;4.384;2024-02-15T08:20:14;15.10;99.90
22635;DHT22;11484;50.858;4.384;2024-02-15T08:22:40;15.20;99.90
22635;DHT22;11484;50.858;4.384;2024-02-15T08:25:08;15.30;99.90
22635;DHT22;11484;50.858;4.384;2024-02-15T08:27:37;15.30;99.90
22635;DHT22;11484;50.858;4.384;2024-02-15T08:30:08;15.30;99.90
22635;DHT22;11484;50.858;4.384;2024-02-15T08:32:35;15.40;99.90
22635;DHT22;11484;50.858;4.384;2024-02-15T08:35:00;15.30;99.90
22635;DHT22;11484;50.858;4.384;2024-02-15T08:37:26;15.30;99.90
22635;DHT22;11484;50.858;4.384;2024-02-15T08:39:52;15.40;99.90
22635;DHT22;11484;50.858;4.384;2024-02-15T08:42:18;15.50;99.90
22635;DHT22;11484;50.858;4.384;2024-02-15T08:44:48;15.60;99.90
22635;DHT22;11484;50.858;4.384;2024-02-15T08:47:14;15.70;99.90
22635;DHT22;11484;50.858;4.384;2024-02-15T08:49:39;15.80;99.90
22635;DHT22;11484;50.858;4.384;2024-02-15T08:52:06;15.80;99.90
22635;DHT22;11484;50.858;4.384;2024-02-15T08:54:33;15.90;99.90
22635;DHT22;11484;50.858;4.384;2024-02-15T08:56:59;16.10;99.90
22635;DHT22;11484;50.858;4.384;2024-02-15T08:59:27;16.10;99.90
22635;DHT22;11484;50.858;4.384;2024-02-15T09:01:55;16.30;99.90
22635;DHT22;11484;50.858;4.384;2024-02-15T09:04:22;16.50;99.90
22635;DHT22;11484;50.858;4.384;2024-02-15T09:06:50;16.60;99.90
22635;DHT22;11484;50.858;4.384;2024-02-15T09:09:16;16.60;99.90
22635;DHT22;11484;50.858;4.384;2024-02-15T09:11:42;16.60;99.90
22635;DHT22;11484;50.858;4.384;2024-02-15T09:14:08;16.60;99.90
22635;DHT22;11484;50.858;4.384;2024-02-15T09:16:36;16.60;99.90
22635;DHT22;11484;50.858;4.384;2024-02-15T09:19:02;16.60;99.90
22635;DHT22;11484;50.858;4.384;2024-02-15T09:21:28;16.60;99.90
22635;DHT22;11484;50.858;4.384;2024-02-15T09:23:55;16.60;99.90
22635;DHT22;11484;50.858;4.384;2024-02-15T09:26:21;16.60;99.90
22635;DHT22;11484;50.858;4.384;2024-02-15T09:28:47;16.70;99.90
22635;DHT22;11484;50.858;4.384;2024-02-15T09:31:13;16.90;99.90
22635;DHT22;11484;50.858;4.384;2024-02-15T09:33:39;17.00;99.90
22635;DHT22;11484;50.858;4.384;2024-02-15T09:36:05;17.20;99.90
22635;DHT22;11484;50.858;4.384;2024-02-15T09:38:31;17.20;99.90
22635;DHT22;11484;50.858;4.384;2024-02-15T09:40:57;17.20;99.90
22635;DHT22;11484;50.858;4.384;2024-02-15T09:43:23;17.20;99.90
22635;DHT22;11484;50.858;4.384;2024-02-15T09:45:52;17.40;99.90
22635;DHT22;11484;50.858;4.384;2024-02-15T09:48:23;17.50;99.90
22635;DHT22;11484;50.858;4.384;2024-02-15T09:50:52;17.60;99.90
22635;DHT22;11484;50.858;4.384;2024-02-15T09:53:22;17.60;99.90
22635;DHT22;11484;50.858;4.384;2024-02-15T09:55:52;17.70;99.90
22635;DHT22;11484;50.858;4.384;2024-02-15T09:58:19;17.80;99.90
22635;DHT22;11484;50.858;4.384;2024-02-15T10:00:45;17.80;99.90
22635;DHT22;11484;50.858;4.384;2024-02-15T10:03:14;17.70;99.90
22635;DHT22;11484;50.858;4.384;2024-02-15T10:05:42;17.80;99.90
22635;DHT22;11484;50.858;4.384;2024-02-15T10:08:07;17.90;99.90
22635;DHT22;11484;50.858;4.384;2024-02-15T10:10:44;18.00;99.90
22635;DHT22;11484;50.858;4.384;2024-02-15T10:13:16;17.80;99.90
22635;DHT22;11484;50.858;4.384;2024-02-15T10:15:50;17.70;99.90
22635;DHT22;11484;50.858;4.384;2024-02-15T10:18:16;17.60;99.90
22635;DHT22;11484;50.858;4.384;2024-02-15T10:20:57;17.60;99.90
22635;DHT22;11484;50.858;4.384;2024-02-15T10:23:23;17.50;99.90
22635;DHT22;11484;50.858;4.384;2024-02-15T10:25:51;17.50;99.90
22635;DHT22;11484;50.858;4.384;2024-02-15T10:28:21;17.70;99.90
22635;DHT22;11484;50.858;4.384;2024-02-15T10:30:49;17.90;99.90
22635;DHT22;11484;50.858;4.384;2024-02-15T10:33:26;18.00;99.90
22635;DHT22;11484;50.858;4.384;2024-02-15T10:36:08;18.10;99.90
22635;DHT22;11484;50.858;4.384;2024-02-15T10:38:36;18.10;99.90
22635;DHT22;11484;50.858;4.384;2024-02-15T10:41:07;18.20;99.90
22635;DHT22;11484;50.858;4.384;2024-02-15T10:43:34;18.20;99.90
22635;DHT22;11484;50.858;4.384;2024-02-15T10:46:03;18.10;99.90
22635;DHT22;11484;50.858;4.384;2024-02-15T10:48:29;18.20;99.90
22635;DHT22;11484;50.858;4.384;2024-02-15T10:51:03;18.30;99.90
22635;DHT22;11484;50.858;4.384;2024-02-15T10:53:31;18.20;99.90
22635;DHT22;11484;50.858;4.384;2024-02-15T10:56:17;18.30;99.90
22635;DHT22;11484;50.858;4.384;2024-02-15T10:58:50;18.50;99.90
22635;DHT22;11484;50.858;4.384;2024-02-15T11:01:20;18.60;99.90
22635;DHT22;11484;50.858;4.384;2024-02-15T11:03:51;18.60;99.90
22635;DHT22;11484;50.858;4.384;2024-02-15T11:06:25;18.40;99.90
22635;DHT22;11484;50.858;4.384;2024-02-15T11:08:52;18.50;99.90
22635;DHT22;11484;50.858;4.384;2024-02-15T11:11:20;18.40;99.90
22635;DHT22;11484;50.858;4.384;2024-02-15T11:13:49;18.50;99.90
22635;DHT22;11484;50.858;4.384;2024-02-15T11:16:43;18.50;99.90
22635;DHT22;11484;50.858;4.384;2024-02-15T11:19:09;18.50;99.90
22635;DHT22;11484;50.858;4.384;2024-02-15T11:21:55;18.50;99.90
22635;DHT22;11484;50.858;4.384;2024-02-15T11:24:27;18.50;99.90
22635;DHT22;11484;50.858;4.384;2024-02-15T11:26:58;18.30;99.90
22635;DHT22;11484;50.858;4.384;2024-02-15T11:30:01;18.30;99.90
22635;DHT22;11484;50.858;4.384;2024-02-15T11:35:13;18.40;99.90
22635;DHT22;11484;50.858;4.384;2024-02-15T11:46:26;18.30;99.90
22635;DHT22;11484;50.858;4.384;2024-02-15T11:48:57;18.40;99.90
22635;DHT22;11484;50.858;4.384;2024-02-15T11:51:32;18.40;99.90
22635;DHT22;11484;50.858;4.384;2024-02-15T11:54:20;18.40;99.90
22635;DHT22;11484;50.858;4.384;2024-02-15T11:56:53;18.40;99.90
22635;DHT22;11484;50.858;4.384;2024-02-15T11:59:42;18.40;99.90
22635;DHT22;11484;50.858;4.384;2024-02-15T12:02:21;18.50;99.90
22635;DHT22;11484;50.858;4.384;2024-02-15T12:05:06;18.50;99.90
22635;DHT22;11484;50.858;4.384;2024-02-15T12:07:50;18.50;99.90
22635;DHT22;11484;50.858;4.384;2024-02-15T12:10:34;18.40;99.90
22635;DHT22;11484;50.858;4.384;2024-02-15T12:13:18;18.60;99.90
22635;DHT22;11484;50.858;4.384;2024-02-15T12:16:04;18.70;99.90
22635;DHT22;11484;50.858;4.384;2024-02-15T12:18:49;18.80;99.90
22635;DHT22;11484;50.858;4.384;2024-02-15T12:21:25;18.80;99.90
22635;DHT22;11484;50.858;4.384;2024-02-15T12:23:53;18.80;99.90
22635;DHT22;11484;50.858;4.384;2024-02-15T12:26:22;18.60;99.90
22635;DHT22;11484;50.858;4.384;2024-02-15T12:28:53;18.40;99.90
22635;DHT22;11484;50.858;4.384;2024-02-15T12:31:24;18.50;99.90
22635;DHT22;11484;50.858;4.384;2024-02-15T12:34:11;18.50;99.90
22635;DHT22;11484;50.858;4.384;2024-02-15T12:36:39;18.50;99.90
22635;DHT22;11484;50.858;4.384;2024-02-15T12:39:06;18.60;99.90
22635;DHT22;11484;50.858;4.384;2024-02-15T12:41:41;18.60;99.90
22635;DHT22;11484;50.858;4.384;2024-02-15T12:44:16;18.80;99.90
22635;DHT22;11484;50.858;4.384;2024-02-15T12:46:42;18.80;99.90
22635;DHT22;11484;50.858;4.384;2024-02-15T12:49:09;18.80;99.90
22635;DHT22;11484;50.858;4.384;2024-02-15T12:51:39;18.80;99.90
22635;DHT22;11484;50.858;4.384;2024-02-15T12:54:09;18.90;99.90
22635;DHT22;11484;50.858;4.384;2024-02-15T12:56:45;19.00;99.90
22635;DHT22;11484;50.858;4.384;2024-02-15T12:59:11;19.10;99.90
22635;DHT22;11484;50.858;4.384;2024-02-15T13:01:37;19.30;99.90
22635;DHT22;11484;50.858;4.384;2024-02-15T13:04:06;19.50;99.90
22635;DHT22;11484;50.858;4.384;2024-02-15T13:06:36;19.50;99.90
22635;DHT22;11484;50.858;4.384;2024-02-15T13:09:03;19.50;99.90
22635;DHT22;11484;50.858;4.384;2024-02-15T13:11:31;19.50;99.90
22635;DHT22;11484;50.858;4.384;2024-02-15T13:13:59;19.40;99.90
22635;DHT22;11484;50.858;4.384;2024-02-15T13:16:25;19.40;99.90
22635;DHT22;11484;50.858;4.384;2024-02-15T13:18:53;19.30;99.90
22635;DHT22;11484;50.858;4.384;2024-02-15T13:21:22;19.30;99.90
22635;DHT22;11484;50.858;4.384;2024-02-15T13:23:52;19.20;99.90
22635;DHT22;11484;50.858;4.384;2024-02-15T13:26:17;19.20;99.90
22635;DHT22;11484;50.858;4.384;2024-02-15T13:28:46;19.20;99.90
22635;DHT22;11484;50.858;4.384;2024-02-15T13:31:15;19.30;99.90
22635;DHT22;11484;50.858;4.384;2024-02-15T13:33:41;19.30;99.90
22635;DHT22;11484;50.858;4.384;2024-02-15T13:36:07;19.40;99.90
22635;DHT22;11484;50.858;4.384;2024-02-15T13:38:36;19.50;99.90
22635;DHT22;11484;50.858;4.384;2024-02-15T13:41:05;19.60;99.90
22635;DHT22;11484;50.858;4.384;2024-02-15T13:43:31;19.60;99.90
22635;DHT22;11484;50.858;4.384;2024-02-15T13:46:05;19.60;99.90
22635;DHT22;11484;50.858;4.384;2024-02-15T13:48:31;19.50;99.90
22635;DHT22;11484;50.858;4.384;2024-02-15T13:50:57;19.30;99.90
22635;DHT22;11484;50.858;4.384;2024-02-15T13:53:23;19.10;99.90
22635;DHT22;11484;50.858;4.384;2024-02-15T13:55:57;19.00;99.90
22635;DHT22;11484;50.858;4.384;2024-02-15T13:58:23;19.00;99.90
22635;DHT22;11484;50.858;4.384;2024-02-15T14:00:55;18.90;99.90
22635;DHT22;11484;50.858;4.384;2024-02-15T14:03:41;18.70;99.90
22635;DHT22;11484;50.858;4.384;2024-02-15T14:06:07;18.70;99.90
22635;DHT22;11484;50.858;4.384;2024-02-15T14:08:33;18.70;99.90
22635;DHT22;11484;50.858;4.384;2024-02-15T14:11:02;18.70;99.90
22635;DHT22;11484;50.858;4.384;2024-02-15T14:13:30;18.70;99.90
22635;DHT22;11484;50.858;4.384;2024-02-15T14:15:56;18.60;99.90
22635;DHT22;11484;50.858;4.384;2024-02-15T14:18:24;18.60;99.90
22635;DHT22;11484;50.858;4.384;2024-02-15T14:20:57;18.60;99.90
22635;DHT22;11484;50.858;4.384;2024-02-15T14:23:26;18.60;99.90
22635;DHT22;11484;50.858;4.384;2024-02-15T14:26:13;18.70;99.90
22635;DHT22;11484;50.858;4.384;2024-02-15T14:28:43;18.80;99.90
22635;DHT22;11484;50.858;4.384;2024-02-15T14:31:11;18.90;99.90
22635;DHT22;11484;50.858;4.384;2024-02-15T14:33:57;18.90;99.90
22635;DHT22;11484;50.858;4.384;2024-02-15T14:36:25;18.80;99.90
22635;DHT22;11484;50.858;4.384;2024-02-15T14:39:04;18.80;99.90
22635;DHT22;11484;50.858;4.384;2024-02-15T14:41:32;18.90;99.90
22635;DHT22;11484;50.858;4.384;2024-02-15T14:43:58;18.90;99.90
22635;DHT22;11484;50.858;4.384;2024-02-15T14:46:28;18.90;99.90
22635;DHT22;11484;50.858;4.384;2024-02-15T14:49:03;19.00;99.90
22635;DHT22;11484;50.858;4.384;2024-02-15T14:51:32;19.10;99.90
22635;DHT22;11484;50.858;4.384;2024-02-15T14:53:59;19.10;99.90
22635;DHT22;11484;50.858;4.384;2024-02-15T14:56:27;18.90;99.90
22635;DHT22;11484;50.858;4.384;2024-02-15T14:58:53;19.00;99.90
22635;DHT22;11484;50.858;4.384;2024-02-15T15:01:20;19.00;99.90
22635;DHT22;11484;50.858;4.384;2024-02-15T15:03:53;19.10;99.90
22635;DHT22;11484;50.858;4.384;2024-02-15T15:06:20;18.90;99.90
22635;DHT22;11484;50.858;4.384;2024-02-15T15:09:05;18.80;99.90
22635;DHT22;11484;50.858;4.384;2024-02-15T15:11:49;18.90;99.90
22635;DHT22;11484;50.858;4.384;2024-02-15T15:14:33;18.80;99.90
22635;DHT22;11484;50.858;4.384;2024-02-15T15:17:08;18.80;99.90
22635;DHT22;11484;50.858;4.384;2024-02-15T15:19:40;18.70;99.90
22635;DHT22;11484;50.858;4.384;2024-02-15T15:22:16;18.70;99.90
22635;DHT22;11484;50.858;4.384;2024-02-15T15:24:52;18.70;99.90
22635;DHT22;11484;50.858;4.384;2024-02-15T15:27:27;18.80;99.90
22635;DHT22;11484;50.858;4.384;2024-02-15T15:29:54;18.80;99.90
22635;DHT22;11484;50.858;4.384;2024-02-15T15:32:20;18.90;99.90
22635;DHT22;11484;50.858;4.384;2024-02-15T15:34:51;18.90;99.90
22635;DHT22;11484;50.858;4.384;2024-02-15T15:37:22;18.80;99.90
22635;DHT22;11484;50.858;4.384;2024-02-15T15:39:49;18.80;99.90
22635;DHT22;11484;50.858;4.384;2024-02-15T15:42:27;18.90;99.90
22635;DHT22;11484;50.858;4.384;2024-02-15T15:44:53;18.80;99.90
22635;DHT22;11484;50.858;4.384;2024-02-15T15:47:19;18.70;99.90
22635;DHT22;11484;50.858;4.384;2024-02-15T15:49:45;18.60;99.90
22635;DHT22;11484;50.858;4.384;2024-02-15T15:52:11;18.50;99.90
22635;DHT22;11484;50.858;4.384;2024-02-15T15:54:40;18.40;99.90